createdAt,value
2023-05-01T00:00:29.970Z,96976.56
2023-05-01T00:02:56.843Z,96969.97
2023-05-01T00:05:23.650Z,96963.69
2023-05-01T00:07:50.391Z,96962.34
2023-05-01T00:10:17.150Z,96958.81
2023-05-01T00:12:43.875Z,96957.16
2023-05-01T00:15:11.133Z,96952.53
2023-05-01T00:17:37.933Z,96953.13
2023-05-01T00:20:05.228Z,96955.59
2023-05-01T00:22:32.091Z,96947.66
2023-05-01T00:24:58.827Z,96953.72
2023-05-01T00:27:25.666Z,96941.75
2023-05-01T00:29:52.412Z,96943.88
2023-05-01T00:32:19.503Z,96939.50
2023-05-01T00:34:46.506Z,96927.78
2023-05-01T00:37:13.293Z,96930.50
2023-05-01T00:39:40.091Z,96936.19
2023-05-01T00:42:06.892Z,96929.09
2023-05-01T00:44:33.619Z,96929.09
2023-05-01T00:47:00.344Z,96922.31
2023-05-01T00:49:27.185Z,96921.25
2023-05-01T00:51:53.938Z,96909.78
2023-05-01T00:54:20.832Z,96906.81
2023-05-01T00:56:48.055Z,96907.06
2023-05-01T00:59:14.925Z,96894.25
2023-05-01T01:01:42.052Z,96896.72
2023-05-01T01:04:08.949Z,96900.53
2023-05-01T01:06:43.979Z,96899.69
2023-05-01T01:09:21.539Z,96888.81
2023-05-01T01:11:51.397Z,96891.78
2023-05-01T01:14:27.549Z,96892.84
2023-05-01T01:16:59.098Z,96892.28
2023-05-01T01:19:50.551Z,96887.41
2023-05-01T01:22:20.612Z,96883.03
2023-05-01T01:25:13.051Z,96888.50
2023-05-01T01:27:51.648Z,96889.31
2023-05-01T01:30:18.288Z,96896.09
2023-05-01T01:32:50.675Z,96897.75
2023-05-01T01:35:19.676Z,96895.00
2023-05-01T01:38:09.962Z,96900.47
2023-05-01T01:40:39.972Z,96895.25
2023-05-01T01:43:07.591Z,96895.84
2023-05-01T01:45:41.985Z,96896.66
2023-05-01T01:48:13.197Z,96896.91
2023-05-01T01:50:40.109Z,96895.25
2023-05-01T01:53:07.183Z,96898.81
2023-05-01T01:55:34.337Z,96892.78
2023-05-01T01:58:01.087Z,96896.56
2023-05-01T02:00:27.948Z,96887.66
2023-05-01T02:02:54.773Z,96885.44
2023-05-01T02:05:21.621Z,96879.41
2023-05-01T02:07:49.406Z,96885.66
2023-05-01T02:10:16.305Z,96880.22
2023-05-01T02:12:44.302Z,96884.84
2023-05-01T02:15:11.061Z,96879.19
2023-05-01T02:17:38.377Z,96889.81
2023-05-01T02:20:05.757Z,96884.38
2023-05-01T02:22:32.449Z,96884.38
2023-05-01T02:24:59.158Z,96881.41
2023-05-01T02:27:34.718Z,96871.56
2023-05-01T02:30:01.556Z,96868.59
2023-05-01T02:32:28.290Z,96868.03
2023-05-01T02:34:54.978Z,96869.94
2023-05-01T02:37:21.653Z,96874.56
2023-05-01T02:39:48.433Z,96873.47
2023-05-01T02:42:15.611Z,96878.31
2023-05-01T02:44:45.807Z,96870.16
2023-05-01T02:47:14.099Z,96878.31
2023-05-01T02:49:40.906Z,96874.56
2023-05-01T02:52:07.658Z,96866.84
2023-05-01T02:54:34.382Z,96870.91
2023-05-01T02:57:03.488Z,96866.59
2023-05-01T02:59:30.220Z,96871.56
2023-05-01T03:01:57.594Z,96861.97
2023-05-01T03:04:24.354Z,96866.59
2023-05-01T03:06:51.905Z,96871.00
2023-05-01T03:09:18.809Z,96865.78
2023-05-01T03:11:45.614Z,96862.22
2023-05-01T03:14:12.444Z,96863.06
2023-05-01T03:16:39.351Z,96857.28
2023-05-01T03:19:06.122Z,96855.47
2023-05-01T03:21:32.955Z,96854.66
2023-05-01T03:24:00.174Z,96852.97
2023-05-01T03:26:26.965Z,96854.06
2023-05-01T03:28:53.695Z,96849.44
2023-05-01T03:31:20.376Z,96860.34
2023-05-01T03:33:47.141Z,96844.00
2023-05-01T03:36:13.860Z,96853.81
2023-05-01T03:38:40.548Z,96855.72
2023-05-01T03:41:07.283Z,96857.03
2023-05-01T03:43:34.136Z,96857.59
2023-05-01T03:46:01.095Z,96860.59
2023-05-01T03:48:30.909Z,96850.50
2023-05-01T03:50:57.700Z,96850.50
2023-05-01T03:53:24.752Z,96849.69
2023-05-01T03:55:51.457Z,96855.97
2023-05-01T03:58:18.334Z,96850.50
2023-05-01T04:00:45.154Z,96853.50
2023-05-01T04:03:12.131Z,96860.59
2023-05-01T04:05:38.932Z,96858.94
2023-05-01T04:08:05.770Z,96856.78
2023-05-01T04:10:32.590Z,96857.53
2023-05-01T04:12:59.372Z,96863.56
2023-05-01T04:15:26.215Z,96857.53
2023-05-01T04:17:53.090Z,96855.06
2023-05-01T04:22:46.015Z,96862.16
2023-05-01T04:25:12.845Z,96863.25
2023-05-01T04:27:39.660Z,96855.31
2023-05-01T04:30:06.988Z,96853.91
2023-05-01T04:32:33.819Z,96853.84
2023-05-01T04:35:00.600Z,96854.91
2023-05-01T04:37:27.431Z,96860.09
2023-05-01T04:39:54.361Z,96869.34
2023-05-01T04:42:21.215Z,96871.00
2023-05-01T04:44:48.256Z,96872.41
2023-05-01T04:47:14.970Z,96868.84
2023-05-01T04:49:41.749Z,96874.88
2023-05-01T04:52:08.531Z,96871.31
2023-05-01T04:54:35.345Z,96880.06
2023-05-01T04:57:02.241Z,96872.13
2023-05-01T04:59:29.066Z,96875.94
2023-05-01T05:01:55.836Z,96871.88
2023-05-01T05:04:22.829Z,96874.03
2023-05-01T05:06:49.678Z,96887.09
2023-05-01T05:09:18.654Z,96878.66
2023-05-01T05:11:46.724Z,96889.22
2023-05-01T05:14:13.518Z,96899.63
2023-05-01T05:16:40.409Z,96895.50
2023-05-01T05:19:09.880Z,96899.81
2023-05-01T05:21:36.753Z,96903.94
2023-05-01T05:24:03.680Z,96899.81
2023-05-01T05:26:30.510Z,96900.94
2023-05-01T05:28:57.350Z,96896.59
2023-05-01T05:31:24.136Z,96898.56
2023-05-01T05:33:50.878Z,96902.34
2023-05-01T05:36:17.661Z,96903.69
2023-05-01T05:38:44.416Z,96895.59
2023-05-01T05:41:11.250Z,96908.41
2023-05-01T05:43:38.001Z,96908.75
2023-05-01T05:46:04.808Z,96912.28
2023-05-01T05:48:31.713Z,96920.13
2023-05-01T05:50:58.542Z,96912.59
2023-05-01T05:53:26.087Z,96909.53
2023-05-01T05:55:53.108Z,96909.38
2023-05-01T05:58:20.235Z,96905.66
2023-05-01T06:00:47.745Z,96910.63
2023-05-01T06:03:14.889Z,96905.50
2023-05-01T06:05:45.161Z,96902.66
2023-05-01T06:08:12.001Z,96909.69
2023-05-01T06:10:44.863Z,96906.41
2023-05-01T06:13:14.521Z,96908.38
2023-05-01T06:15:41.843Z,96901.03
2023-05-01T06:18:08.960Z,96896.50
2023-05-01T06:20:36.135Z,96898.97
2023-05-01T06:23:03.298Z,96888.66
2023-05-01T06:25:29.993Z,96901.53
2023-05-01T06:27:59.762Z,96905.66
2023-05-01T06:30:26.486Z,96903.75
2023-05-01T06:32:53.317Z,96906.47
2023-05-01T06:35:20.062Z,96909.19
2023-05-01T06:37:46.727Z,96911.94
2023-05-01T06:40:13.406Z,96917.38
2023-05-01T06:42:40.352Z,96916.31
2023-05-01T06:45:07.846Z,96926.38
2023-05-01T06:47:34.681Z,96922.00
2023-05-01T06:50:03.557Z,96922.81
2023-05-01T06:52:31.259Z,96921.25
2023-05-01T06:55:00.895Z,96924.22
2023-05-01T06:57:27.617Z,96920.25
2023-05-01T06:59:54.473Z,96926.47
2023-05-01T07:02:21.651Z,96929.00
2023-05-01T07:04:48.457Z,96930.34
2023-05-01T07:07:15.177Z,96932.25
2023-05-01T07:09:42.149Z,96932.25
2023-05-01T07:12:08.867Z,96934.47
2023-05-01T07:14:36.024Z,96939.91
2023-05-01T07:17:03.614Z,96930.34
2023-05-01T07:19:30.439Z,96923.00
2023-05-01T07:21:57.302Z,96933.38
2023-05-01T07:24:24.052Z,96937.44
2023-05-01T07:26:50.854Z,96953.44
2023-05-01T07:29:17.569Z,96957.50
2023-05-01T07:31:44.546Z,96962.44
2023-05-01T07:34:11.292Z,96965.91
2023-05-01T07:36:37.997Z,96967.81
2023-05-01T07:39:04.907Z,96968.78
2023-05-01T07:41:31.650Z,96966.19
2023-05-01T07:43:59.228Z,96967.78
2023-05-01T07:46:26.204Z,96976.78
2023-05-01T07:48:54.330Z,96973.75
2023-05-01T07:51:21.317Z,96969.66
2023-05-01T07:53:48.102Z,96970.09
2023-05-01T07:56:14.826Z,96964.00
2023-05-01T07:58:41.559Z,96964.34
2023-05-01T08:01:08.325Z,96962.44
2023-05-01T08:03:35.139Z,96959.22
2023-05-01T08:06:02.032Z,96956.03
2023-05-01T08:08:28.792Z,96957.41
2023-05-01T08:10:55.447Z,96958.81
2023-05-01T08:13:22.193Z,96949.31
2023-05-01T08:15:48.923Z,96957.25
2023-05-01T08:18:15.624Z,96953.94
2023-05-01T08:20:42.347Z,96960.00
2023-05-01T08:23:09.084Z,96961.63
2023-05-01T08:25:35.792Z,96964.69
2023-05-01T08:28:02.587Z,96968.31
2023-05-01T08:30:29.274Z,96972.34
2023-05-01T08:32:56.040Z,96975.69
2023-05-01T08:35:22.929Z,96976.81
2023-05-01T08:37:49.723Z,96990.13
2023-05-01T08:40:16.899Z,96989.88
2023-05-01T08:42:43.603Z,96993.16
2023-05-01T08:45:10.761Z,96994.91
2023-05-01T08:47:37.709Z,97000.03
2023-05-01T08:50:07.752Z,96995.88
2023-05-01T08:52:34.446Z,96993.56
2023-05-01T08:55:01.133Z,96993.31
2023-05-01T08:57:27.843Z,97002.94
2023-05-01T08:59:55.851Z,96992.09
2023-05-01T09:02:23.032Z,97002.69
2023-05-01T09:04:49.742Z,97004.22
2023-05-01T09:07:16.531Z,97011.75
2023-05-01T09:09:43.482Z,97001.69
2023-05-01T09:12:18.052Z,97013.66
2023-05-01T09:14:44.813Z,97010.06
2023-05-01T09:17:12.462Z,97016.84
2023-05-01T09:19:39.146Z,97011.16
2023-05-01T09:22:05.914Z,97009.84
2023-05-01T09:24:32.701Z,97015.31
2023-05-01T09:26:59.438Z,97015.63
2023-05-01T09:29:42.065Z,97015.78
2023-05-01T09:32:24.960Z,97014.69
2023-05-01T09:34:52.432Z,97018.25
2023-05-01T09:37:32.170Z,97020.31
2023-05-01T09:40:05.723Z,97011.91
2023-05-01T09:42:33.452Z,97017.91
2023-05-01T09:45:00.851Z,97016.28
2023-05-01T09:47:29.136Z,97024.19
2023-05-01T09:49:56.810Z,97026.59
2023-05-01T09:52:29.068Z,97026.91
2023-05-01T09:55:18.055Z,97027.75
2023-05-01T09:57:45.838Z,97029.38
2023-05-01T10:00:14.146Z,97031.72
2023-05-01T10:02:42.289Z,97029.75
2023-05-01T10:05:10.434Z,97030.28
2023-05-01T10:07:37.373Z,97031.53
2023-05-01T10:10:19.845Z,97028.75
2023-05-01T10:12:46.809Z,97039.19
2023-05-01T10:15:24.522Z,97038.19
2023-05-01T10:17:52.780Z,97043.97
2023-05-01T10:20:19.701Z,97041.28
2023-05-01T10:22:46.548Z,97046.88
2023-05-01T10:25:13.627Z,97049.72
2023-05-01T10:27:40.577Z,97044.56
2023-05-01T10:30:08.153Z,97046.78
2023-05-01T10:32:35.776Z,97051.28
2023-05-01T10:35:08.963Z,97050.28
2023-05-01T10:37:58.453Z,97046.91
2023-05-01T10:40:40.632Z,97038.03
2023-05-01T10:43:23.747Z,97046.84
2023-05-01T10:45:50.545Z,97049.94
2023-05-01T10:48:39.043Z,97058.19
2023-05-01T10:51:13.174Z,97056.81
2023-05-01T10:53:43.683Z,97049.69
2023-05-01T10:56:22.436Z,97055.47
2023-05-01T10:58:58.813Z,97049.09
2023-05-01T11:01:33.018Z,97051.59
2023-05-01T11:04:03.225Z,97045.53
2023-05-01T11:06:30.092Z,97046.22
2023-05-01T11:08:57.080Z,97048.47
2023-05-01T11:11:26.440Z,97059.38
2023-05-01T11:14:02.493Z,97056.91
2023-05-01T11:16:38.475Z,97051.50
2023-05-01T11:19:12.715Z,97050.44
2023-05-01T11:21:39.767Z,97058.81
2023-05-01T11:24:06.693Z,97051.19
2023-05-01T11:26:33.981Z,97053.09
2023-05-01T11:29:01.194Z,97054.75
2023-05-01T11:31:28.391Z,97043.34
2023-05-01T11:34:01.244Z,97051.94
2023-05-01T11:36:28.892Z,97047.97
2023-05-01T11:38:57.145Z,97051.34
2023-05-01T11:41:24.354Z,97043.25
2023-05-01T11:43:52.300Z,97044.56
2023-05-01T11:46:32.133Z,97041.09
2023-05-01T11:49:03.155Z,97044.91
2023-05-01T11:51:30.031Z,97039.59
2023-05-01T11:54:05.780Z,97044.22
2023-05-01T11:56:33.293Z,97039.34
2023-05-01T11:59:08.990Z,97033.06
2023-05-01T12:01:36.589Z,97027.13
2023-05-01T12:04:03.816Z,97023.13
2023-05-01T12:06:37.076Z,97022.69
2023-05-01T12:09:04.037Z,97022.97
2023-05-01T12:11:30.796Z,97021.56
2023-05-01T12:13:57.551Z,97032.22
2023-05-01T12:16:24.363Z,97027.66
2023-05-01T12:18:51.105Z,97028.41
2023-05-01T12:21:17.830Z,97025.44
2023-05-01T12:23:44.605Z,97024.09
2023-05-01T12:26:23.223Z,97026.81
2023-05-01T12:29:03.406Z,97027.47
2023-05-01T12:31:30.302Z,97025.44
2023-05-01T12:34:01.202Z,97018.56
2023-05-01T12:36:29.304Z,97018.06
2023-05-01T12:38:56.436Z,97017.06
2023-05-01T12:41:40.743Z,97026.34
2023-05-01T12:44:24.070Z,97028.94
2023-05-01T12:47:01.373Z,97031.31
2023-05-01T12:49:28.604Z,97033.41
2023-05-01T12:52:00.530Z,97034.97
2023-05-01T12:54:28.840Z,97028.78
2023-05-01T12:57:09.002Z,97037.63
2023-05-01T12:59:36.732Z,97027.47
2023-05-01T13:02:04.805Z,97028.78
2023-05-01T13:04:31.735Z,97031.59
2023-05-01T13:06:58.586Z,97030.44
2023-05-01T13:09:26.799Z,97043.97
2023-05-01T13:12:04.248Z,97035.53
2023-05-01T13:14:36.156Z,97034.78
2023-05-01T13:17:02.843Z,97035.66
2023-05-01T13:19:29.679Z,97032.88
2023-05-01T13:21:56.675Z,97034.38
2023-05-01T13:24:43.769Z,97040.00
2023-05-01T13:27:13.311Z,97040.25
2023-05-01T13:29:40.036Z,97030.34
2023-05-01T13:32:07.057Z,97026.47
2023-05-01T13:34:34.531Z,97024.06
2023-05-01T13:37:01.801Z,97015.06
2023-05-01T13:39:28.534Z,97012.06
2023-05-01T13:41:55.239Z,96998.53
2023-05-01T13:44:22.209Z,97002.06
2023-05-01T13:46:49.553Z,96994.63
2023-05-01T13:49:17.122Z,96990.84
2023-05-01T13:51:44.886Z,96994.41
2023-05-01T13:54:11.655Z,96993.63
2023-05-01T13:56:38.830Z,96997.19
2023-05-01T13:59:08.665Z,96990.66
2023-05-01T14:01:41.530Z,96994.84
2023-05-01T14:04:14.744Z,96991.19
2023-05-01T14:06:41.858Z,96990.41
2023-05-01T14:09:08.597Z,96994.81
2023-05-01T14:11:41.388Z,96985.81
2023-05-01T14:14:08.151Z,96988.88
2023-05-01T14:16:34.952Z,96990.78
2023-05-01T14:19:02.038Z,96985.63
2023-05-01T14:21:28.764Z,96984.19
2023-05-01T14:23:55.790Z,96988.47
2023-05-01T14:26:22.585Z,96976.84
2023-05-01T14:28:49.416Z,96970.19
2023-05-01T14:31:27.627Z,96980.00
2023-05-01T14:33:57.747Z,96976.44
2023-05-01T14:36:25.730Z,96990.94
2023-05-01T14:38:53.807Z,96992.88
2023-05-01T14:41:21.779Z,96984.94
2023-05-01T14:43:49.246Z,96988.28
2023-05-01T14:46:16.606Z,96981.09
2023-05-01T14:48:44.340Z,96979.19
2023-05-01T14:51:12.275Z,96980.78
2023-05-01T14:53:42.727Z,96973.16
2023-05-01T14:56:10.033Z,96988.47
2023-05-01T14:58:37.826Z,96983.66
2023-05-01T15:01:05.222Z,96987.00
2023-05-01T15:03:33.327Z,96991.94
2023-05-01T15:06:00.961Z,96987.81
2023-05-01T15:08:30.230Z,96999.28
2023-05-01T15:10:57.345Z,96998.69
2023-05-01T15:13:24.484Z,96991.28
2023-05-01T15:15:52.093Z,96999.44
2023-05-01T15:18:19.060Z,97002.50
2023-05-01T15:20:45.777Z,96998.94
2023-05-01T15:23:12.523Z,96999.84
2023-05-01T15:25:39.866Z,97003.94
2023-05-01T15:28:06.775Z,97000.69
2023-05-01T15:30:33.544Z,96995.28
2023-05-01T15:33:01.199Z,96999.34
2023-05-01T15:35:28.348Z,97002.03
2023-05-01T15:37:55.140Z,97003.84
2023-05-01T15:40:21.815Z,97005.03
2023-05-01T15:42:48.673Z,97005.16
2023-05-01T15:45:15.544Z,97014.19
2023-05-01T15:47:43.126Z,97009.53
2023-05-01T15:50:10.564Z,97002.09
2023-05-01T15:52:37.533Z,97002.31
2023-05-01T15:55:04.725Z,97003.94
2023-05-01T15:57:31.878Z,97011.50
2023-05-01T15:59:59.174Z,97006.22
2023-05-01T16:02:26.274Z,97006.44
2023-05-01T16:04:53.414Z,97005.28
2023-05-01T16:07:20.398Z,97002.56
2023-05-01T16:09:47.211Z,96999.97
2023-05-01T16:12:14.091Z,97007.03
2023-05-01T16:14:41.013Z,97009.44
2023-05-01T16:17:07.924Z,97003.59
2023-05-01T16:19:34.723Z,97003.34
2023-05-01T16:22:03.341Z,97013.75
2023-05-01T16:24:36.707Z,97020.03
2023-05-01T16:27:03.530Z,97015.38
2023-05-01T16:29:32.881Z,97026.31
2023-05-01T16:31:59.627Z,97017.25
2023-05-01T16:34:26.704Z,97016.03
2023-05-01T16:36:53.784Z,97022.53
2023-05-01T16:39:21.561Z,97026.06
2023-05-01T16:41:56.047Z,97023.72
2023-05-01T16:44:23.043Z,97031.53
2023-05-01T16:46:56.863Z,97028.16
2023-05-01T16:49:24.123Z,97035.22
2023-05-01T16:51:50.892Z,97032.22
2023-05-01T16:54:17.763Z,97038.66
2023-05-01T16:56:44.525Z,97037.84
2023-05-01T16:59:11.287Z,97039.69
2023-05-01T17:01:38.108Z,97039.34
2023-05-01T17:04:05.157Z,97034.66
2023-05-01T17:06:32.045Z,97039.28
2023-05-01T17:08:58.742Z,97038.47
2023-05-01T17:11:25.436Z,97036.72
2023-05-01T17:13:52.141Z,97036.72
2023-05-01T17:16:19.024Z,97032.28
2023-05-01T17:18:45.964Z,97031.66
2023-05-01T17:21:12.715Z,97042.00
2023-05-01T17:23:39.492Z,97043.59
2023-05-01T17:26:06.324Z,97039.13
2023-05-01T17:28:33.022Z,97047.28
2023-05-01T17:30:59.835Z,97043.44
2023-05-01T17:33:29.626Z,97044.00
2023-05-01T17:35:56.521Z,97036.38
2023-05-01T17:38:23.299Z,97037.00
2023-05-01T17:40:50.090Z,97035.00
2023-05-01T17:43:16.837Z,97044.00
2023-05-01T17:45:43.775Z,97034.16
2023-05-01T17:48:10.598Z,97038.44
2023-05-01T17:50:37.391Z,97038.19
2023-05-01T17:53:04.150Z,97044.00
2023-05-01T17:55:30.907Z,97035.31
2023-05-01T17:57:57.606Z,97039.38
2023-05-01T18:00:24.372Z,97043.91
2023-05-01T18:02:51.229Z,97039.53
2023-05-01T18:05:18.013Z,97040.09
2023-05-01T18:07:44.683Z,97043.06
2023-05-01T18:10:11.450Z,97049.00
2023-05-01T18:12:38.318Z,97046.78
2023-05-01T18:15:05.334Z,97055.44
2023-05-01T18:17:32.135Z,97049.50
2023-05-01T18:19:59.430Z,97048.94
2023-05-01T18:22:26.306Z,97045.84
2023-05-01T18:24:53.071Z,97049.44
2023-05-01T18:27:19.818Z,97055.91
2023-05-01T18:29:46.589Z,97055.34
2023-05-01T18:32:14.026Z,97053.94
2023-05-01T18:34:41.407Z,97052.88
2023-05-01T18:37:08.150Z,97060.22
2023-05-01T18:39:35.292Z,97053.38
2023-05-01T18:45:23.585Z,97062.28
2023-05-01T18:47:50.360Z,97064.16
2023-05-01T18:50:17.144Z,97074.75
2023-05-01T18:52:43.935Z,97079.44
2023-05-01T18:55:10.665Z,97082.16
2023-05-01T18:57:37.332Z,97088.22
2023-05-01T19:00:04.248Z,97084.66
2023-05-01T19:02:31.097Z,97085.50
2023-05-01T19:04:58.409Z,97094.72
2023-05-01T19:07:26.097Z,97099.34
2023-05-01T19:09:52.964Z,97102.56
2023-05-01T19:12:19.734Z,97105.03
2023-05-01T19:14:46.397Z,97100.16
2023-05-01T19:17:13.085Z,97097.13
2023-05-01T19:19:39.836Z,97103.38
2023-05-01T19:22:06.593Z,97106.38
2023-05-01T19:24:33.357Z,97105.03
2023-05-01T19:27:00.139Z,97108.34
2023-05-01T19:29:26.893Z,97111.56
2023-05-01T19:31:53.688Z,97111.81
2023-05-01T19:34:20.561Z,97113.22
2023-05-01T19:36:47.316Z,97118.91
2023-05-01T19:39:14.029Z,97124.84
2023-05-01T19:41:40.813Z,97121.63
2023-05-01T19:44:08.061Z,97126.19
2023-05-01T19:46:35.401Z,97127.34
2023-05-01T19:49:02.982Z,97133.03
2023-05-01T19:51:29.792Z,97129.22
2023-05-01T19:53:56.487Z,97130.31
2023-05-01T19:56:23.214Z,97140.38
2023-05-01T19:58:50.034Z,97143.69
2023-05-01T20:01:16.852Z,97138.47
2023-05-01T20:03:43.667Z,97144.50
2023-05-01T20:06:10.508Z,97154.25
2023-05-01T20:08:37.226Z,97154.25
2023-05-01T20:11:03.895Z,97162.06
2023-05-01T20:13:30.655Z,97172.50
2023-05-01T20:16:00.413Z,97180.41
2023-05-01T20:18:27.098Z,97182.56
2023-05-01T20:20:53.860Z,97183.59
2023-05-01T20:23:21.345Z,97188.00
2023-05-01T20:25:48.972Z,97186.69
2023-05-01T20:28:15.685Z,97182.56
2023-05-01T20:30:42.881Z,97179.84
2023-05-01T20:33:09.659Z,97183.41
2023-05-01T20:35:36.687Z,97181.97
2023-05-01T20:38:03.847Z,97184.22
2023-05-01T20:40:30.776Z,97188.84
2023-05-01T20:42:57.972Z,97186.94
2023-05-01T20:45:24.955Z,97193.69
2023-05-01T20:47:51.732Z,97186.13
2023-05-01T20:50:18.576Z,97187.16
2023-05-01T20:52:45.837Z,97185.50
2023-05-01T20:55:12.623Z,97183.41
2023-05-01T20:57:39.417Z,97181.72
2023-05-01T21:00:07.052Z,97186.56
2023-05-01T21:02:34.281Z,97190.75
2023-05-01T21:05:01.023Z,97184.22
2023-05-01T21:07:29.258Z,97195.56
2023-05-01T21:09:56.002Z,97198.91
2023-05-01T21:12:22.778Z,97188.22
2023-05-01T21:14:49.601Z,97191.78
2023-05-01T21:17:16.371Z,97192.03
2023-05-01T21:19:44.433Z,97196.66
2023-05-01T21:22:37.270Z,97197.47
2023-05-01T21:25:04.466Z,97193.94
2023-05-01T21:27:31.339Z,97195.00
2023-05-01T21:29:59.428Z,97195.56
2023-05-01T21:32:32.263Z,97193.47
2023-05-01T21:34:59.939Z,97199.13
2023-05-01T21:37:26.698Z,97196.41
2023-05-01T21:39:53.406Z,97195.56
2023-05-01T21:42:20.092Z,97203.75
2023-05-01T21:44:46.868Z,97197.22
2023-05-01T21:47:14.167Z,97198.53
2023-05-01T21:49:40.983Z,97201.28
2023-05-01T21:52:07.692Z,97208.38
2023-05-01T21:54:36.175Z,97204.81
2023-05-01T21:57:02.934Z,97202.94
2023-05-01T21:59:37.461Z,97201.28
2023-05-01T22:02:06.824Z,97197.72
2023-05-01T22:04:36.898Z,97200.19
2023-05-01T22:07:03.997Z,97204.81
2023-05-01T22:09:30.896Z,97199.63
2023-05-01T22:11:57.654Z,97204.81
2023-05-01T22:14:30.912Z,97208.38
2023-05-01T22:17:07.146Z,97201.28
2023-05-01T22:19:34.093Z,97207.56
2023-05-01T22:22:00.834Z,97200.44
2023-05-01T22:24:27.584Z,97213.25
2023-05-01T22:26:54.363Z,97200.44
2023-05-01T22:29:21.192Z,97209.44
2023-05-01T22:31:47.917Z,97208.88
2023-05-01T22:34:17.639Z,97209.09
2023-05-01T22:36:44.517Z,97210.19
2023-05-01T22:39:11.232Z,97206.72
2023-05-01T22:41:37.916Z,97201.53
2023-05-01T22:44:04.735Z,97214.31
2023-05-01T22:46:31.511Z,97218.34
2023-05-01T22:48:58.274Z,97212.66
2023-05-01T22:51:24.988Z,97220.84
2023-05-01T22:53:51.719Z,97218.09
2023-05-01T22:56:18.529Z,97216.22
2023-05-01T22:58:45.248Z,97220.00
2023-05-01T23:01:11.908Z,97215.13
2023-05-01T23:03:39.140Z,97226.03
2023-05-01T23:06:06.115Z,97220.84
2023-05-01T23:08:32.995Z,97231.25
2023-05-01T23:10:59.932Z,97227.94
2023-05-01T23:13:26.668Z,97225.22
2023-05-01T23:15:53.709Z,97230.91
2023-05-01T23:18:24.661Z,97219.75
2023-05-01T23:20:51.736Z,97226.28
2023-05-01T23:23:19.831Z,97226.28
2023-05-01T23:25:47.092Z,97223.31
2023-05-01T23:28:25.775Z,97226.03
2023-05-01T23:31:00.497Z,97223.06
2023-05-01T23:33:28.861Z,97229.84
2023-05-01T23:35:55.578Z,97231.41
2023-05-01T23:38:22.366Z,97234.69
2023-05-01T23:40:49.106Z,97229.25
2023-05-01T23:43:15.897Z,97227.94
2023-05-01T23:45:42.734Z,97235.28
2023-05-01T23:48:09.552Z,97229.84
2023-05-01T23:50:36.387Z,97227.94
2023-05-01T23:53:06.782Z,97229.00
2023-05-01T23:55:34.595Z,97230.91
2023-05-01T23:58:02.012Z,97223.31
